Time;durP1;ratioP1;P1;durP2;ratioP2;P2;SDS_P1;SDS_P2;PMS_P1;PMS_P2;Temp;Humidity;BMP_temperature;BMP_pressure;BME280_temperature;BME280_humidity;BME280_pressure;Samples;Min_cycle;Max_cycle;Signal;HPM_P1;HPM_P2
2024/01/07 00:00:04;;;;;;;13.85;4.88;;;;;;;;;;4976281;28;20076;-89
2024/01/07 00:02:36;;;;;;;9.98;3.05;;;;;;;;;;4941917;28;20046;-90
2024/01/07 00:05:06;;;;;;;;;;;;;;;;;;4957331;28;20046;-89
2024/01/07 00:07:37;;;;;;;6.60;1.67;;;;;;;;;;4975779;28;19918;-89
2024/01/07 00:10:09;;;;;;;11.65;4.97;;;;;;;;;;4950833;28;20062;-88
2024/01/07 00:12:41;;;;;;;11.60;3.38;;;;;;;;;;4930971;28;20047;-86
2024/01/07 00:15:15;;;;;;;26.67;11.88;;;;;;;;;;4949513;28;20110;-86
2024/01/07 00:17:45;;;;;;;11.43;5.53;;;;;;;;;;4954076;28;20047;-89
2024/01/07 00:20:16;;;;;;;15.15;6.53;;;;;;;;;;4946759;28;20093;-89
2024/01/07 00:22:48;;;;;;;8.32;3.25;;;;;;;;;;4966914;28;20497;-86
2024/01/07 00:25:18;;;;;;;8.43;2.65;;;;;;;;;;4950212;28;20485;-87
2024/01/07 00:27:50;;;;;;;7.45;2.17;;;;;;;;;;4947148;28;20038;-85
2024/01/07 00:30:20;;;;;;;8.90;3.35;;;;;;;;;;4929096;28;20043;-88
2024/01/07 00:32:52;;;;;;;11.48;2.55;;;;;;;;;;4954893;28;20046;-86
2024/01/07 00:35:23;;;;;;;8.18;2.15;;;;;;;;;;4962703;28;20042;-88
2024/01/07 00:37:56;;;;;;;4.50;2.00;;;;;;;;;;4943906;28;20050;-87
2024/01/07 00:40:28;;;;;;;10.30;2.15;;;;;;;;;;4949163;28;20490;-88
2024/01/07 00:42:59;;;;;;;5.82;1.70;;;;;;;;;;4936681;28;20046;-91
2024/01/07 00:45:33;;;;;;;6.60;2.53;;;;;;;;;;4945403;28;20367;-87
2024/01/07 00:48:03;;;;;;;6.15;2.33;;;;;;;;;;4943661;28;20039;-87
2024/01/07 00:50:33;;;;;;;10.40;3.10;;;;;;;;;;4946929;28;20050;-89
2024/01/07 00:53:05;;;;;;;6.75;2.70;;;;;;;;;;4945274;28;20050;-88
2024/01/07 00:55:45;;;;;;;10.20;2.58;;;;;;;;;;4950142;28;20054;-91
2024/01/07 00:58:15;;;;;;;10.93;2.90;;;;;;;;;;4946162;28;20042;-90
2024/01/07 01:00:46;;;;;;;6.40;1.90;;;;;;;;;;4945238;28;20055;-88
2024/01/07 01:03:17;;;;;;;10.52;2.20;;;;;;;;;;4943914;28;20168;-92
2024/01/07 01:05:48;;;;;;;6.00;3.20;;;;;;;;;;4946506;28;20398;-87
2024/01/07 01:08:23;;;;;;;7.82;2.50;;;;;;;;;;4945613;28;20039;-88
2024/01/07 01:11:02;;;;;;;11.20;2.67;;;;;;;;;;4962369;28;20039;-88
2024/01/07 01:13:33;;;;;;;7.85;2.33;;;;;;;;;;4939063;28;20058;-91
2024/01/07 01:16:05;;;;;;;10.73;2.35;;;;;;;;;;4956204;28;20039;-87
2024/01/07 01:18:36;;;;;;;8.55;2.20;;;;;;;;;;4956964;28;20498;-87
2024/01/07 01:21:07;;;;;;;9.35;2.10;;;;;;;;;;4953715;29;20066;-88
2024/01/07 01:23:38;;;;;;;10.65;2.30;;;;;;;;;;4940386;29;20070;-89
2024/01/07 01:26:13;;;;;;;6.93;2.45;;;;;;;;;;4941611;28;20417;-88
2024/01/07 01:28:51;;;;;;;9.68;2.17;;;;;;;;;;4958825;28;20047;-87
2024/01/07 01:31:21;;;;;;;7.18;2.60;;;;;;;;;;4958126;28;20050;-87
2024/01/07 01:33:52;;;;;;;11.45;2.20;;;;;;;;;;4959153;28;20486;-87
2024/01/07 01:36:24;;;;;;;7.63;2.30;;;;;;;;;;4957983;28;20043;-87
2024/01/07 01:38:55;;;;;;;9.35;2.65;;;;;;;;;;4958419;28;20043;-88
2024/01/07 01:41:40;;;;;;;6.78;2.35;;;;;;;;;;4958339;28;20381;-86
2024/01/07 01:44:12;;;;;;;5.20;2.22;;;;;;;;;;4898359;28;20476;-86
2024/01/07 01:46:45;;;;;;;9.45;2.20;;;;;;;;;;4958007;28;20066;-87
2024/01/07 01:49:36;;;;;;;10.95;2.30;;;;;;;;;;4958666;28;20061;-90
2024/01/07 01:52:14;;;;;;;6.80;2.42;;;;;;;;;;4957659;28;20050;-86
2024/01/07 01:54:46;;;;;;;8.75;2.65;;;;;;;;;;4950927;29;20043;-86
2024/01/07 01:57:22;;;;;;;10.93;2.53;;;;;;;;;;4957491;29;20046;-87
2024/01/07 01:59:53;;;;;;;8.48;2.58;;;;;;;;;;4939375;29;20059;-87
2024/01/07 02:02:23;;;;;;;9.02;2.50;;;;;;;;;;4954678;29;20050;-90
2024/01/07 02:04:54;;;;;;;5.47;2.35;;;;;;;;;;4939090;29;20055;-90
2024/01/07 02:07:49;;;;;;;8.18;2.42;;;;;;;;;;4939009;29;20043;-87
2024/01/07 02:10:21;;;;;;;5.18;2.05;;;;;;;;;;4921573;29;20047;-90
2024/01/07 02:12:53;;;;;;;13.68;2.42;;;;;;;;;;4921468;28;20055;-88
2024/01/07 02:15:24;;;;;;;7.10;2.60;;;;;;;;;;4940248;29;20497;-87
2024/01/07 02:17:55;;;;;;;14.30;2.60;;;;;;;;;;4940039;29;20046;-86
2024/01/07 02:20:26;;;;;;;8.60;3.05;;;;;;;;;;4947167;28;20055;-87
2024/01/07 02:22:59;;;;;;;9.55;2.70;;;;;;;;;;4950581;28;20528;-88
2024/01/07 02:25:30;;;;;;;5.93;2.33;;;;;;;;;;4949495;28;20450;-86
2024/01/07 02:28:01;;;;;;;9.13;2.70;;;;;;;;;;4949107;28;20035;-86
2024/01/07 02:30:31;;;;;;;6.28;2.72;;;;;;;;;;4948283;28;20042;-87
2024/01/07 02:33:03;;;;;;;5.13;2.40;;;;;;;;;;4966973;28;20042;-88
2024/01/07 02:35:35;;;;;;;7.50;2.50;;;;;;;;;;4949010;28;20066;-86
2024/01/07 02:38:14;;;;;;;9.98;3.00;;;;;;;;;;4967545;28;20389;-87
2024/01/07 02:40:50;;;;;;;7.78;2.40;;;;;;;;;;4970447;28;20050;-87
2024/01/07 02:43:21;;;;;;;7.90;2.58;;;;;;;;;;4948723;28;20054;-88
2024/01/07 02:45:51;;;;;;;10.27;2.80;;;;;;;;;;4966026;28;20037;-86
2024/01/07 02:48:22;;;;;;;8.25;2.33;;;;;;;;;;4950394;28;20049;-87
2024/01/07 02:50:53;;;;;;;7.88;3.08;;;;;;;;;;4945670;29;20066;-85
2024/01/07 02:53:25;;;;;;;11.50;2.67;;;;;;;;;;4924173;29;20047;-85
2024/01/07 02:55:56;;;;;;;9.30;4.15;;;;;;;;;;4939096;29;20058;-86
2024/01/07 03:02:51;;;;;;;8.90;2.55;;;;;;;;;;4957524;28;20039;-86
2024/01/07 03:05:38;;;;;;;5.63;2.65;;;;;;;;;;4940024;29;20047;-87
2024/01/07 03:08:08;;;;;;;7.97;2.55;;;;;;;;;;4956559;29;20043;-87
2024/01/07 03:10:39;;;;;;;9.52;2.88;;;;;;;;;;4939042;29;20064;-85
2024/01/07 03:13:10;;;;;;;8.85;2.95;;;;;;;;;;4939140;29;20058;-85
2024/01/07 03:15:42;;;;;;;7.88;2.42;;;;;;;;;;4939156;29;20051;-87
2024/01/07 03:18:12;;;;;;;7.68;2.78;;;;;;;;;;4940308;29;20050;-85
2024/01/07 03:20:42;;;;;;;12.27;3.50;;;;;;;;;;4939758;29;20058;-86
2024/01/07 03:23:12;;;;;;;7.70;2.53;;;;;;;;;;4939086;29;20058;-85
2024/01/07 03:25:42;;;;;;;6.47;2.67;;;;;;;;;;4923688;29;20050;-85
2024/01/07 03:28:15;;;;;;;9.43;2.70;;;;;;;;;;4921137;29;20059;-85
2024/01/07 03:30:45;;;;;;;6.05;3.75;;;;;;;;;;4956969;29;20390;-86
2024/01/07 03:33:15;;;;;;;10.82;2.80;;;;;;;;;;4939171;29;20498;-86
2024/01/07 03:35:46;;;;;;;11.55;2.60;;;;;;;;;;4939414;29;20043;-86
2024/01/07 03:38:17;;;;;;;9.20;2.90;;;;;;;;;;4940086;29;20470;-85
2024/01/07 03:40:48;;;;;;;12.20;3.08;;;;;;;;;;4922151;29;20055;-86
2024/01/07 03:43:19;;;;;;;9.27;2.63;;;;;;;;;;4957676;29;20035;-87
2024/01/07 03:45:49;;;;;;;10.07;2.80;;;;;;;;;;4941466;29;20043;-87
2024/01/07 03:48:20;;;;;;;7.82;2.80;;;;;;;;;;4943980;29;20051;-88
2024/01/07 03:50:50;;;;;;;9.15;3.70;;;;;;;;;;4949793;29;20371;-87
2024/01/07 03:53:23;;;;;;;8.50;2.28;;;;;;;;;;4935938;29;20054;-88
2024/01/07 03:55:53;;;;;;;4.63;2.60;;;;;;;;;;4935313;29;20057;-86
2024/01/07 03:58:23;;;;;;;9.13;2.55;;;;;;;;;;4927993;29;20051;-86
2024/01/07 04:00:54;;;;;;;5.05;2.70;;;;;;;;;;4939322;29;20058;-85
2024/01/07 04:03:25;;;;;;;6.97;2.70;;;;;;;;;;4956783;29;20054;-87
2024/01/07 04:05:56;;;;;;;6.07;2.47;;;;;;;;;;4937959;29;20058;-89
2024/01/07 04:08:25;;;;;;;4.85;2.55;;;;;;;;;;4939758;29;20058;-88
2024/01/07 04:10:55;;;;;;;7.75;3.15;;;;;;;;;;4939953;29;20417;-85
2024/01/07 04:13:26;;;;;;;6.10;2.75;;;;;;;;;;4957269;29;20046;-85
2024/01/07 04:15:56;;;;;;;8.95;3.22;;;;;;;;;;4939714;29;20055;-88
2024/01/07 04:18:28;;;;;;;9.77;3.03;;;;;;;;;;4956195;29;20386;-86
2024/01/07 04:20:59;;;;;;;12.63;3.38;;;;;;;;;;4938391;29;20047;-86
2024/01/07 04:23:29;;;;;;;11.07;3.03;;;;;;;;;;4938533;29;20062;-88
2024/01/07 04:26:00;;;;;;;7.63;3.17;;;;;;;;;;4923469;29;20359;-88
2024/01/07 04:28:31;;;;;;;5.18;2.80;;;;;;;;;;4922795;29;20047;-87
2024/01/07 04:31:01;;;;;;;8.93;3.05;;;;;;;;;;4939686;29;20051;-87
2024/01/07 04:33:33;;;;;;;12.18;3.45;;;;;;;;;;4923895;29;20047;-88
2024/01/07 04:36:05;;;;;;;6.22;2.65;;;;;;;;;;4922928;29;20058;-86
2024/01/07 04:38:35;;;;;;;11.93;2.53;;;;;;;;;;4938480;29;20043;-88
2024/01/07 04:41:07;;;;;;;6.85;3.05;;;;;;;;;;4921768;29;20047;-87
2024/01/07 04:43:37;;;;;;;6.90;3.08;;;;;;;;;;4938242;29;20051;-87
2024/01/07 04:46:10;;;;;;;7.05;2.50;;;;;;;;;;4938618;29;20047;-88
2024/01/07 04:48:40;;;;;;;5.63;2.67;;;;;;;;;;4938712;29;20058;-87
2024/01/07 04:51:11;;;;;;;6.70;2.60;;;;;;;;;;4956849;28;20047;-89
2024/01/07 04:53:42;;;;;;;11.88;3.08;;;;;;;;;;4942270;29;20043;-87
2024/01/07 04:56:12;;;;;;;9.48;3.28;;;;;;;;;;4942872;29;20382;-87
2024/01/07 04:58:43;;;;;;;8.85;3.00;;;;;;;;;;4944476;29;20058;-86
2024/01/07 05:01:13;;;;;;;11.55;3.20;;;;;;;;;;4942316;29;20051;-87
2024/01/07 05:03:45;;;;;;;9.75;3.20;;;;;;;;;;4960037;29;20466;-88
2024/01/07 05:06:19;;;;;;;7.55;2.88;;;;;;;;;;4942343;29;20058;-89
2024/01/07 05:08:50;;;;;;;7.15;2.95;;;;;;;;;;4927918;29;20066;-87
2024/01/07 05:11:19;;;;;;;8.00;4.53;;;;;;;;;;4942561;29;20391;-87
2024/01/07 05:13:50;;;;;;;9.70;2.78;;;;;;;;;;4942600;29;20062;-86
2024/01/07 05:16:23;;;;;;;;;;;;;;;;;;4942831;29;20072;-87
2024/01/07 05:18:53;;;;;;;10.50;2.88;;;;;;;;;;4941607;29;19926;-89
2024/01/07 05:21:23;;;;;;;9.13;3.35;;;;;;;;;;4941761;29;20406;-87
2024/01/07 05:23:55;;;;;;;6.75;2.40;;;;;;;;;;4942770;29;20043;-88
2024/01/07 05:26:26;;;;;;;7.07;2.70;;;;;;;;;;4926819;29;20039;-88
2024/01/07 05:28:56;;;;;;;7.00;2.47;;;;;;;;;;4941887;29;20055;-87
2024/01/07 05:31:27;;;;;;;6.93;2.85;;;;;;;;;;4942606;29;20046;-88
2024/01/07 05:33:57;;;;;;;6.25;2.60;;;;;;;;;;4942189;29;20051;-87
2024/01/07 05:36:30;;;;;;;6.97;3.33;;;;;;;;;;4925275;29;20386;-87
2024/01/07 05:39:00;;;;;;;13.85;3.63;;;;;;;;;;4926021;29;20386;-86
2024/01/07 05:41:33;;;;;;;8.40;2.92;;;;;;;;;;4941522;29;20509;-88
2024/01/07 05:44:03;;;;;;;6.70;3.00;;;;;;;;;;4941185;29;20124;-88
2024/01/07 05:46:35;;;;;;;9.00;3.00;;;;;;;;;;4957699;29;20046;-86
2024/01/07 05:49:07;;;;;;;5.30;2.45;;;;;;;;;;4941240;29;20047;-86
2024/01/07 05:51:41;;;;;;;8.60;2.78;;;;;;;;;;4925627;29;20490;-87
2024/01/07 05:54:12;;;;;;;12.00;3.08;;;;;;;;;;4941224;29;20047;-88
2024/01/07 05:56:43;;;;;;;7.35;3.05;;;;;;;;;;4925069;29;20058;-87
2024/01/07 05:59:13;;;;;;;9.18;2.80;;;;;;;;;;4942484;29;20043;-86
2024/01/07 06:01:43;;;;;;;7.40;3.20;;;;;;;;;;4924096;28;20047;-89
2024/01/07 06:04:13;;;;;;;6.50;2.72;;;;;;;;;;4924598;29;20471;-86
2024/01/07 06:06:43;;;;;;;9.05;3.05;;;;;;;;;;4958459;29;20084;-87
2024/01/07 06:09:16;;;;;;;10.88;2.78;;;;;;;;;;4924868;29;20074;-87
2024/01/07 06:11:46;;;;;;;6.78;2.92;;;;;;;;;;4940897;29;20479;-87
2024/01/07 06:14:16;;;;;;;7.78;2.72;;;;;;;;;;4924735;29;20066;-85
2024/01/07 06:16:47;;;;;;;8.10;3.40;;;;;;;;;;4940970;29;20051;-88
2024/01/07 06:19:20;;;;;;;10.38;3.08;;;;;;;;;;4941482;29;20054;-86
2024/01/07 06:21:51;;;;;;;9.88;2.60;;;;;;;;;;4924762;29;20070;-86
2024/01/07 06:24:22;;;;;;;6.32;3.55;;;;;;;;;;4939853;29;20364;-86
2024/01/07 06:26:52;;;;;;;8.30;3.38;;;;;;;;;;4939901;29;20047;-86
2024/01/07 06:29:22;;;;;;;9.85;3.65;;;;;;;;;;4940533;29;20051;-86
2024/01/07 06:31:52;;;;;;;9.43;2.95;;;;;;;;;;4941074;29;20043;-86
2024/01/07 06:34:23;;;;;;;7.15;2.63;;;;;;;;;;4939943;29;20043;-87
2024/01/07 06:36:53;;;;;;;11.05;2.70;;;;;;;;;;4940509;29;20039;-86
2024/01/07 06:39:26;;;;;;;9.00;3.67;;;;;;;;;;4939857;29;20047;-86
2024/01/07 06:41:57;;;;;;;7.90;3.17;;;;;;;;;;4957249;29;20501;-89
2024/01/07 06:44:27;;;;;;;8.07;2.85;;;;;;;;;;4924479;29;20058;-86
2024/01/07 06:46:59;;;;;;;9.68;3.28;;;;;;;;;;4939392;29;20500;-86
2024/01/07 06:49:30;;;;;;;9.35;2.92;;;;;;;;;;4924205;29;20047;-87
2024/01/07 06:52:00;;;;;;;6.55;2.65;;;;;;;;;;4940052;29;20057;-90
2024/01/07 06:54:33;;;;;;;7.75;3.17;;;;;;;;;;4957962;29;20099;-87
2024/01/07 06:57:03;;;;;;;7.72;2.80;;;;;;;;;;4939814;29;20047;-86
2024/01/07 06:59:34;;;;;;;8.70;3.17;;;;;;;;;;4941196;29;20375;-88
2024/01/07 07:02:05;;;;;;;12.15;3.03;;;;;;;;;;4939469;29;20046;-86
2024/01/07 07:04:36;;;;;;;13.50;3.08;;;;;;;;;;4939766;29;20055;-88
2024/01/07 07:07:06;;;;;;;11.77;3.10;;;;;;;;;;4939840;29;20055;-88
2024/01/07 07:09:38;;;;;;;8.02;2.95;;;;;;;;;;4954503;29;20058;-88
2024/01/07 07:12:08;;;;;;;8.23;2.90;;;;;;;;;;4939610;29;20055;-86
2024/01/07 07:14:38;;;;;;;8.90;3.50;;;;;;;;;;4923370;29;20043;-85
2024/01/07 07:17:09;;;;;;;9.98;3.97;;;;;;;;;;4941142;29;20058;-85
2024/01/07 07:19:39;;;;;;;9.75;2.75;;;;;;;;;;4964612;29;20047;-89
2024/01/07 07:22:14;;;;;;;8.93;2.63;;;;;;;;;;4947416;29;20043;-86
2024/01/07 07:24:45;;;;;;;6.15;2.83;;;;;;;;;;4961694;29;20386;-86
2024/01/07 07:27:18;;;;;;;9.20;3.30;;;;;;;;;;4957662;29;20467;-88
2024/01/07 07:29:48;;;;;;;6.13;3.03;;;;;;;;;;4939086;29;20040;-85
2024/01/07 07:32:19;;;;;;;10.48;2.72;;;;;;;;;;4938806;29;20058;-85
2024/01/07 07:34:51;;;;;;;9.35;2.83;;;;;;;;;;4923423;29;20058;-88
2024/01/07 07:37:22;;;;;;;14.38;2.85;;;;;;;;;;4954143;29;20051;-86
2024/01/07 07:39:52;;;;;;;9.27;2.65;;;;;;;;;;4939353;29;20047;-85
2024/01/07 07:42:23;;;;;;;6.82;2.95;;;;;;;;;;4939183;29;20043;-87
2024/01/07 07:44:58;;;;;;;10.15;2.92;;;;;;;;;;4923550;29;20051;-87
2024/01/07 07:47:30;;;;;;;8.48;3.22;;;;;;;;;;4939879;29;20043;-86
2024/01/07 07:50:02;;;;;;;7.97;2.95;;;;;;;;;;4956556;29;20043;-86
2024/01/07 07:52:32;;;;;;;10.00;3.25;;;;;;;;;;4956446;29;20070;-86
2024/01/07 07:55:04;;;;;;;6.40;2.88;;;;;;;;;;4939849;29;20058;-86
2024/01/07 07:57:34;;;;;;;;;;;;;;;;;;4940047;29;20054;-86
2024/01/07 08:00:07;;;;;;;7.32;3.22;;;;;;;;;;4939496;29;19918;-86
2024/01/07 08:02:37;;;;;;;7.60;3.40;;;;;;;;;;4955803;29;20343;-88
2024/01/07 08:05:08;;;;;;;13.38;3.25;;;;;;;;;;4923401;29;20058;-87
2024/01/07 08:07:39;;;;;;;6.90;2.95;;;;;;;;;;4938516;29;20058;-85
2024/01/07 08:10:10;;;;;;;7.85;2.92;;;;;;;;;;4938205;29;20502;-88
2024/01/07 08:12:40;;;;;;;10.05;2.97;;;;;;;;;;4938095;29;20066;-87
2024/01/07 08:15:12;;;;;;;9.00;3.38;;;;;;;;;;4938106;29;20043;-89
2024/01/07 08:17:45;;;;;;;5.88;3.00;;;;;;;;;;4955475;29;20403;-87
2024/01/07 08:20:15;;;;;;;9.43;3.53;;;;;;;;;;4939262;29;20054;-86
2024/01/07 08:22:49;;;;;;;9.35;3.10;;;;;;;;;;4954076;29;20051;-89
2024/01/07 08:25:20;;;;;;;7.65;3.33;;;;;;;;;;4955293;28;20050;-88
2024/01/07 08:27:53;;;;;;;9.13;2.70;;;;;;;;;;4922203;29;20517;-90
2024/01/07 08:30:24;;;;;;;;;;;;;;;;;;4938920;28;20478;-84
2024/01/07 08:32:56;;;;;;;6.95;3.22;;;;;;;;;;4946600;28;19969;-88
2024/01/07 08:35:25;;;;;;;5.60;2.75;;;;;;;;;;4924601;28;20043;-89
2024/01/07 08:37:55;;;;;;;5.53;2.47;;;;;;;;;;4945619;29;20406;-88
2024/01/07 08:40:27;;;;;;;7.53;2.80;;;;;;;;;;4949028;28;20035;-88
2024/01/07 08:42:57;;;;;;;11.38;2.92;;;;;;;;;;4956496;28;20051;-88
2024/01/07 08:45:28;;;;;;;7.85;3.15;;;;;;;;;;4957821;28;20039;-88
2024/01/07 08:48:25;;;;;;;7.20;2.72;;;;;;;;;;4942685;28;20038;-81
2024/01/07 08:50:56;;;;;;;9.73;2.85;;;;;;;;;;4958315;28;20045;-85
2024/01/07 08:53:26;;;;;;;6.18;2.60;;;;;;;;;;4941098;28;20047;-85
2024/01/07 08:55:57;;;;;;;9.95;2.88;;;;;;;;;;4954516;28;20047;-85
2024/01/07 08:59:16;;;;;;;7.95;2.97;;;;;;;;;;4963001;28;20035;-86
2024/01/07 09:01:48;;;;;;;7.78;3.05;;;;;;;;;;4964561;28;20039;-88
2024/01/07 09:04:19;;;;;;;6.00;3.10;;;;;;;;;;4934331;28;20051;-87
2024/01/07 09:06:49;;;;;;;6.80;3.33;;;;;;;;;;4947728;28;20043;-86
2024/01/07 09:09:18;;;;;;;7.43;2.85;;;;;;;;;;4945602;28;20047;-86
2024/01/07 09:11:49;;;;;;;6.47;2.75;;;;;;;;;;4945532;28;20048;-89
2024/01/07 09:14:19;;;;;;;12.65;2.90;;;;;;;;;;4946101;28;20120;-86
2024/01/07 09:16:50;;;;;;;9.00;3.20;;;;;;;;;;4964992;28;20374;-87
2024/01/07 09:19:21;;;;;;;7.05;2.65;;;;;;;;;;4946384;28;20485;-86
2024/01/07 09:21:52;;;;;;;6.65;2.50;;;;;;;;;;4945257;28;20393;-88
2024/01/07 09:24:24;;;;;;;9.50;2.63;;;;;;;;;;4939354;28;20055;-88
2024/01/07 09:26:54;;;;;;;8.05;2.70;;;;;;;;;;4936069;28;20051;-85
2024/01/07 09:29:25;;;;;;;4.18;2.05;;;;;;;;;;4925264;29;20062;-85
2024/01/07 09:31:56;;;;;;;7.30;2.83;;;;;;;;;;4938066;29;20058;-87
2024/01/07 09:34:27;;;;;;;9.93;2.22;;;;;;;;;;4956368;29;20043;-87
2024/01/07 09:36:58;;;;;;;9.90;2.40;;;;;;;;;;4957627;28;20046;-86
2024/01/07 09:39:29;;;;;;;10.30;2.70;;;;;;;;;;4959612;29;20502;-89
2024/01/07 09:42:00;;;;;;;9.25;3.83;;;;;;;;;;4954160;29;20383;-85
2024/01/07 09:44:32;;;;;;;;;;;;;;;;;;4971328;29;20042;-87
2024/01/07 09:47:03;;;;;;;10.98;2.30;;;;;;;;;;4938470;29;19918;-86
2024/01/07 09:49:34;;;;;;;9.60;2.10;;;;;;;;;;4940766;29;20047;-89
2024/01/07 09:52:05;;;;;;;9.02;2.10;;;;;;;;;;4957177;29;20050;-86
2024/01/07 09:54:40;;;;;;;11.40;3.28;;;;;;;;;;4941386;29;20331;-86
2024/01/07 09:57:11;;;;;;;7.45;2.30;;;;;;;;;;4940661;29;20051;-85
2024/01/07 09:59:41;;;;;;;6.53;2.47;;;;;;;;;;4958295;29;20050;-84
2024/01/07 10:02:11;;;;;;;8.10;2.33;;;;;;;;;;4940096;29;20062;-84
2024/01/07 10:04:47;;;;;;;11.93;2.30;;;;;;;;;;4924929;29;20047;-82
2024/01/07 10:07:20;;;;;;;5.10;1.90;;;;;;;;;;4941032;29;20384;-87
2024/01/07 10:09:50;;;;;;;;;;;;;;;;;;4940556;29;20058;-84
2024/01/07 10:12:23;;;;;;;9.98;2.42;;;;;;;;;;4957536;29;19918;-86
2024/01/07 10:14:55;;;;;;;7.03;2.63;;;;;;;;;;4940360;29;20463;-84
2024/01/07 10:17:30;;;;;;;10.98;2.20;;;;;;;;;;4941001;29;20047;-84
2024/01/07 10:20:01;;;;;;;8.05;2.58;;;;;;;;;;4939738;29;20087;-85
2024/01/07 10:22:32;;;;;;;7.82;2.00;;;;;;;;;;4958106;29;20046;-85
2024/01/07 10:25:02;;;;;;;6.20;1.90;;;;;;;;;;4944326;28;20051;-85
2024/01/07 10:27:38;;;;;;;4.97;1.80;;;;;;;;;;4976810;28;20050;-86
2024/01/07 10:30:09;;;;;;;5.97;2.08;;;;;;;;;;4957144;28;20418;-85
2024/01/07 10:32:42;;;;;;;6.53;1.80;;;;;;;;;;4966589;28;20039;-85
2024/01/07 10:35:20;;;;;;;4.75;2.00;;;;;;;;;;4934493;28;20044;-85
2024/01/07 10:37:50;;;;;;;;;;;;;;;;;;4948057;28;20046;-85
2024/01/07 10:40:21;;;;;;;;;;;;;;;;;;4949146;28;20296;-86
2024/01/07 10:42:52;;;;;;;3.58;1.63;;;;;;;;;;4953394;28;19941;-86
2024/01/07 10:45:23;;;;;;;2.92;1.60;;;;;;;;;;4952498;28;20490;-86
2024/01/07 10:48:00;;;;;;;3.55;1.45;;;;;;;;;;4944352;28;20062;-87
2024/01/07 10:50:31;;;;;;;2.25;1.13;;;;;;;;;;4948732;28;20051;-86
2024/01/07 10:53:07;;;;;;;6.38;2.00;;;;;;;;;;4957764;28;20508;-86
2024/01/07 10:55:43;;;;;;;7.25;1.42;;;;;;;;;;4949885;28;20509;-84
2024/01/07 10:58:14;;;;;;;4.85;1.30;;;;;;;;;;4966187;28;20042;-86
2024/01/07 11:00:44;;;;;;;6.30;1.42;;;;;;;;;;4967843;28;20046;-87
2024/01/07 11:03:27;;;;;;;5.20;2.42;;;;;;;;;;4939918;28;20393;-87
2024/01/07 11:06:16;;;;;;;3.92;1.40;;;;;;;;;;4958284;28;20050;-87
2024/01/07 11:08:59;;;;;;;6.45;1.33;;;;;;;;;;4958963;28;20047;-87
2024/01/07 11:11:42;;;;;;;7.53;1.42;;;;;;;;;;4958350;28;20043;-87
2024/01/07 11:14:34;;;;;;;3.28;1.00;;;;;;;;;;4959297;28;20043;-86
2024/01/07 11:17:07;;;;;;;9.48;1.70;;;;;;;;;;4941379;29;20490;-89
2024/01/07 11:19:41;;;;;;;5.70;1.33;;;;;;;;;;4939174;29;20058;-86
2024/01/07 11:22:29;;;;;;;3.40;1.10;;;;;;;;;;4956636;29;20493;-87
2024/01/07 11:25:01;;;;;;;2.10;1.20;;;;;;;;;;4939270;29;20047;-88
2024/01/07 11:27:35;;;;;;;2.47;1.50;;;;;;;;;;4938819;29;20047;-87
2024/01/07 11:30:19;;;;;;;3.90;1.45;;;;;;;;;;4939732;29;20073;-87
2024/01/07 11:33:00;;;;;;;3.72;1.05;;;;;;;;;;4954483;29;20051;-86
2024/01/07 11:36:07;;;;;;;5.45;1.00;;;;;;;;;;4940054;29;20047;-86
2024/01/07 11:38:39;;;;;;;2.47;1.02;;;;;;;;;;4916231;29;20089;-88
2024/01/07 11:41:13;;;;;;;5.13;1.00;;;;;;;;;;4933645;29;20047;-86
2024/01/07 11:43:55;;;;;;;3.30;1.20;;;;;;;;;;4970510;28;20042;-84
2024/01/07 11:46:28;;;;;;;3.60;1.20;;;;;;;;;;4947714;28;20050;-83
2024/01/07 11:49:00;;;;;;;7.72;1.40;;;;;;;;;;4963231;28;20038;-86
2024/01/07 11:51:32;;;;;;;4.25;1.05;;;;;;;;;;4939344;29;20039;-86
2024/01/07 11:54:05;;;;;;;4.03;1.33;;;;;;;;;;4956084;29;20051;-86
2024/01/07 11:56:35;;;;;;;5.57;0.93;;;;;;;;;;4943776;28;20049;-85
2024/01/07 11:59:06;;;;;;;3.97;1.23;;;;;;;;;;4964793;28;20035;-83
2024/01/07 12:01:37;;;;;;;1.70;1.15;;;;;;;;;;4963028;28;20219;-90
2024/01/07 12:04:09;;;;;;;5.63;1.02;;;;;;;;;;4946377;28;20053;-91
2024/01/07 12:06:40;;;;;;;2.58;0.90;;;;;;;;;;4966097;28;20066;-89
2024/01/07 12:09:13;;;;;;;4.20;1.20;;;;;;;;;;4933050;29;20043;-92
2024/01/07 12:11:45;;;;;;;4.18;1.33;;;;;;;;;;4935903;29;20050;-90
2024/01/07 12:14:17;;;;;;;4.25;1.10;;;;;;;;;;4921788;29;20047;-89
2024/01/07 12:16:47;;;;;;;3.00;1.20;;;;;;;;;;4931177;28;20055;-93
2024/01/07 12:19:23;;;;;;;2.58;0.90;;;;;;;;;;4954974;28;20500;-91
2024/01/07 12:22:07;;;;;;;3.17;1.00;;;;;;;;;;4949100;28;20043;-88
2024/01/07 12:24:37;;;;;;;6.55;1.40;;;;;;;;;;4954458;28;20057;-90
2024/01/07 12:27:09;;;;;;;4.18;1.40;;;;;;;;;;4942529;28;20051;-93
2024/01/07 12:30:17;;;;;;;4.85;1.50;;;;;;;;;;4893670;29;20041;-92
2024/01/07 12:32:50;;;;;;;2.63;1.13;;;;;;;;;;4896113;29;20061;-88
2024/01/07 12:35:20;;;;;;;3.50;1.00;;;;;;;;;;4897610;29;20060;-91
2024/01/07 12:37:53;;;;;;;8.25;2.75;;;;;;;;;;4892973;29;20061;-89
2024/01/07 12:40:25;;;;;;;4.20;1.25;;;;;;;;;;4876781;29;20052;-90
2024/01/07 12:42:57;;;;;;;2.28;0.93;;;;;;;;;;4860216;29;20055;-89
2024/01/07 12:45:28;;;;;;;1.83;0.98;;;;;;;;;;4862130;29;20053;-93
2024/01/07 12:48:02;;;;;;;6.70;1.20;;;;;;;;;;4861296;29;20047;-89
2024/01/07 12:50:33;;;;;;;2.85;1.08;;;;;;;;;;4862686;29;20563;-87
2024/01/07 12:53:05;;;;;;;2.17;1.00;;;;;;;;;;4880265;29;20053;-89
2024/01/07 12:55:35;;;;;;;2.67;0.88;;;;;;;;;;4865269;29;20071;-92
2024/01/07 13:01:44;;;;;;;1.48;0.60;;;;;;;;;;4881548;29;20052;-89
2024/01/07 13:04:15;;;;;;;4.80;0.75;;;;;;;;;;4895815;29;20075;-89
2024/01/07 13:06:46;;;;;;;1.70;0.70;;;;;;;;;;4905368;28;20063;-87
2024/01/07 13:09:16;;;;;;;3.38;1.00;;;;;;;;;;4941888;28;20047;-89
2024/01/07 13:11:46;;;;;;;2.33;0.70;;;;;;;;;;4974999;28;20043;-91
2024/01/07 13:14:18;;;;;;;2.97;0.90;;;;;;;;;;4945900;28;20501;-89
2024/01/07 13:16:49;;;;;;;2.53;1.10;;;;;;;;;;4960931;28;20054;-89
2024/01/07 13:19:20;;;;;;;2.45;0.95;;;;;;;;;;4946217;28;20062;-90
2024/01/07 13:21:51;;;;;;;3.53;0.90;;;;;;;;;;4977952;28;20049;-91
2024/01/07 13:24:22;;;;;;;4.07;1.10;;;;;;;;;;4946750;28;20047;-89
2024/01/07 13:26:53;;;;;;;29.58;19.23;;;;;;;;;;4961652;28;20051;-89
2024/01/07 13:29:24;;;;;;;12.70;6.97;;;;;;;;;;4960635;28;20058;-89
2024/01/07 13:31:58;;;;;;;5.90;2.38;;;;;;;;;;4976472;28;20042;-93
2024/01/07 13:34:29;;;;;;;69.15;57.60;;;;;;;;;;4946509;28;20046;-85
2024/01/07 13:37:01;;;;;;;68.63;57.40;;;;;;;;;;4961894;28;20038;-90
2024/01/07 13:39:32;;;;;;;23.27;11.95;;;;;;;;;;4945711;28;20049;-92
2024/01/07 13:42:03;;;;;;;5.95;1.85;;;;;;;;;;4961038;28;20058;-91
2024/01/07 13:44:34;;;;;;;3.67;1.52;;;;;;;;;;4945896;28;20051;-91
2024/01/07 13:47:07;;;;;;;12.52;8.57;;;;;;;;;;4960434;28;20047;-91
2024/01/07 13:49:38;;;;;;;6.88;4.55;;;;;;;;;;4962389;28;20038;-92
2024/01/07 13:52:13;;;;;;;7.80;3.90;;;;;;;;;;4961458;28;20062;-90
2024/01/07 13:54:45;;;;;;;;;;;;;;;;;;4945914;28;20050;-89
2024/01/07 13:57:16;;;;;;;10.82;4.38;;;;;;;;;;4975534;28;19927;-94
2024/01/07 13:59:46;;;;;;;8.23;3.72;;;;;;;;;;4945520;28;20047;-90
2024/01/07 14:02:22;;;;;;;12.32;6.47;;;;;;;;;;4960332;28;20047;-91
2024/01/07 14:04:53;;;;;;;17.73;8.82;;;;;;;;;;4958605;28;20046;-88
2024/01/07 14:07:26;;;;;;;12.25;5.40;;;;;;;;;;4960917;28;20478;-89
2024/01/07 14:09:57;;;;;;;7.18;2.63;;;;;;;;;;4946674;28;20057;-89
2024/01/07 14:12:29;;;;;;;6.85;3.63;;;;;;;;;;4963786;28;20054;-86
2024/01/07 14:15:02;;;;;;;;;;;;;;;;;;4981578;28;20045;-89
2024/01/07 14:17:33;;;;;;;5.32;1.48;;;;;;;;;;4960010;28;19918;-87
2024/01/07 14:20:04;;;;;;;6.78;2.05;;;;;;;;;;4945753;28;20382;-89
2024/01/07 14:22:39;;;;;;;6.68;2.78;;;;;;;;;;4959729;28;20047;-90
2024/01/07 14:25:10;;;;;;;4.60;2.20;;;;;;;;;;4948110;28;20047;-91
2024/01/07 14:27:41;;;;;;;4.95;1.80;;;;;;;;;;4947475;29;20055;-88
2024/01/07 14:30:11;;;;;;;3.47;1.17;;;;;;;;;;4973322;28;20074;-89
2024/01/07 14:32:44;;;;;;;4.38;1.40;;;;;;;;;;4957950;28;20529;-89
2024/01/07 14:45:59;;;;;;;20.83;11.80;;;;;;;;;;4967663;28;19918;-91
2024/01/07 14:48:30;;;;;;;14.30;7.47;;;;;;;;;;4951503;28;20058;-91
2024/01/07 14:51:01;;;;;;;5.97;3.47;;;;;;;;;;4939998;29;20046;-92
2024/01/07 14:53:33;;;;;;;8.10;5.13;;;;;;;;;;4940084;29;20081;-88
2024/01/07 14:56:03;;;;;;;11.32;5.95;;;;;;;;;;4944833;28;20042;-93
2024/01/07 14:58:33;;;;;;;10.65;5.20;;;;;;;;;;4935172;29;20517;-92
2024/01/07 15:01:04;;;;;;;;;;;;;;;;;;4925179;29;20486;-86
2024/01/07 15:03:34;;;;;;;165.82;121.80;;;;;;;;;;4928053;28;19918;-87
2024/01/07 15:06:06;;;;;;;10.57;5.40;;;;;;;;;;4950172;28;20394;-89
2024/01/07 15:08:36;;;;;;;6.15;3.30;;;;;;;;;;4961315;28;20371;-89
2024/01/07 15:11:08;;;;;;;16.65;9.05;;;;;;;;;;4958717;28;20047;-87
2024/01/07 15:13:43;;;;;;;4.97;2.17;;;;;;;;;;4951088;28;20397;-89
2024/01/07 15:16:38;;;;;;;13.90;8.40;;;;;;;;;;4951871;28;20367;-87
2024/01/07 15:19:21;;;;;;;17.40;10.35;;;;;;;;;;4950289;29;20046;-89
2024/01/07 15:21:53;;;;;;;49.97;35.33;;;;;;;;;;4956917;28;20093;-91
2024/01/07 15:24:25;;;;;;;7.43;4.57;;;;;;;;;;4948857;28;20366;-89
2024/01/07 15:26:55;;;;;;;9.45;5.75;;;;;;;;;;4947825;28;20362;-92
2024/01/07 15:29:25;;;;;;;6.05;2.33;;;;;;;;;;4948915;28;20058;-91
2024/01/07 15:31:57;;;;;;;6.32;2.80;;;;;;;;;;4964092;28;20053;-88